Time;durP1;ratioP1;P1;durP2;ratioP2;P2;SDS_P1;SDS_P2;PMS_P1;PMS_P2;Temp;Humidity;BMP_temperature;BMP_pressure;BME280_temperature;BME280_humidity;BME280_pressure;Samples;Min_cycle;Max_cycle;Signal;HPM_P1;HPM_P2
2024/02/08 00:00:10;;;;;;;12.93;4.30;;;1.50;99.90;;;;;;5036919;28;20590;-90
2024/02/08 00:02:38;;;;;;;12.93;4.03;;;1.40;99.90;;;;;;5036981;28;20178;-90
2024/02/08 00:05:06;;;;;;;13.30;4.00;;;1.50;99.90;;;;;;5046344;28;20185;-90
2024/02/08 00:07:32;;;;;;;9.80;3.87;;;1.50;99.90;;;;;;5045483;28;20298;-91
2024/02/08 00:09:58;;;;;;;7.87;3.97;;;1.60;99.90;;;;;;5026218;28;20622;-90
2024/02/08 00:12:25;;;;;;;14.63;4.37;;;1.60;99.90;;;;;;5016106;28;20531;-90
2024/02/08 00:14:51;;;;;;;7.57;3.97;;;1.50;99.90;;;;;;5045340;28;20648;-90
2024/02/08 00:17:20;;;;;;;11.33;4.10;;;1.40;99.90;;;;;;5045540;28;20187;-90
2024/02/08 00:19:48;;;;;;;8.30;3.67;;;1.50;99.90;;;;;;5055069;28;20187;-90
2024/02/08 00:22:20;;;;;;;9.17;3.90;;;1.60;99.90;;;;;;5026996;28;20190;-90
2024/02/08 00:24:46;;;;;;;8.47;3.87;;;1.50;99.90;;;;;;5045162;28;20193;-89
2024/02/08 00:27:12;;;;;;;8.43;3.23;;;1.50;99.90;;;;;;5036568;28;20276;-90
2024/02/08 00:29:41;;;;;;;12.43;3.83;;;1.30;99.90;;;;;;5045160;28;20213;-91
2024/02/08 00:32:08;;;;;;;8.90;3.70;;;1.30;99.90;;;;;;5045533;28;20187;-90
2024/02/08 00:34:38;;;;;;;12.40;4.30;;;1.40;99.90;;;;;;5045153;28;20205;-90
2024/02/08 00:39:42;;;;;;;10.83;3.77;;;1.40;99.90;;;;;;5137335;22;20245;-85
2024/02/08 00:42:11;;;;;;;11.60;4.23;;;1.50;99.90;;;;;;5031871;28;20253;-85
2024/02/08 00:44:41;;;;;;;11.30;3.90;;;1.50;99.90;;;;;;5048263;28;20209;-86
2024/02/08 00:47:11;;;;;;;10.47;3.80;;;1.60;99.90;;;;;;5027640;28;20198;-86
2024/02/08 00:49:39;;;;;;;12.00;3.50;;;1.60;99.90;;;;;;5019621;28;20628;-86
2024/02/08 00:52:14;;;;;;;12.57;4.40;;;1.50;99.90;;;;;;5031868;28;20221;-87
2024/02/08 00:54:39;;;;;;;8.20;3.83;;;1.50;99.90;;;;;;5038733;28;20251;-87
2024/02/08 00:57:07;;;;;;;7.97;4.00;;;1.40;99.90;;;;;;5019731;28;20194;-86
2024/02/08 00:59:39;;;;;;;8.47;4.00;;;1.30;99.90;;;;;;5027466;28;20182;-87
2024/02/08 01:02:06;;;;;;;13.37;4.20;;;1.40;99.90;;;;;;5026896;28;20245;-86
2024/02/08 01:04:33;;;;;;;12.73;4.10;;;1.20;99.90;;;;;;5019516;28;20182;-86
2024/02/08 01:06:59;;;;;;;8.10;3.73;;;1.20;99.90;;;;;;5019184;28;20197;-86
2024/02/08 01:09:26;;;;;;;12.73;3.73;;;1.10;99.90;;;;;;5026937;28;20277;-86
2024/02/08 01:11:52;;;;;;;10.70;3.80;;;1.20;99.90;;;;;;5027145;28;20186;-86
2024/02/08 01:14:21;;;;;;;9.27;3.73;;;1.20;99.90;;;;;;5025633;28;20249;-87
2024/02/08 01:16:54;;;;;;;13.33;4.17;;;1.30;99.90;;;;;;5018732;28;20266;-87
2024/02/08 01:19:25;;;;;;;8.90;3.70;;;1.20;99.90;;;;;;5018864;28;20190;-87
2024/02/08 01:21:56;;;;;;;8.00;3.30;;;1.20;99.90;;;;;;5037035;28;20276;-88
2024/02/08 01:24:23;;;;;;;10.83;3.87;;;1.30;99.90;;;;;;5034176;28;20273;-86
2024/02/08 01:26:50;;;;;;;10.07;4.10;;;1.30;99.90;;;;;;5038342;28;20243;-87
2024/02/08 01:29:17;;;;;;;8.33;3.80;;;1.30;99.90;;;;;;5038473;28;20213;-87
2024/02/08 01:31:43;;;;;;;11.10;4.10;;;1.30;99.90;;;;;;5021925;28;20195;-87
2024/02/08 01:34:10;;;;;;;9.53;3.77;;;1.20;99.90;;;;;;5033761;28;20561;-87
2024/02/08 01:36:41;;;;;;;10.43;3.93;;;1.20;99.90;;;;;;5026794;28;20212;-87
2024/02/08 01:39:13;;;;;;;14.70;4.20;;;1.20;99.90;;;;;;5031187;28;20234;-87
2024/02/08 01:41:43;;;;;;;8.33;3.60;;;1.30;99.90;;;;;;5038300;28;20193;-87
2024/02/08 01:44:09;;;;;;;13.07;3.80;;;1.30;99.90;;;;;;5038220;28;20206;-87
2024/02/08 01:46:38;;;;;;;9.40;3.70;;;1.20;99.90;;;;;;5047709;28;20186;-87
2024/02/08 01:49:12;;;;;;;14.23;4.10;;;1.30;99.90;;;;;;5026848;28;20186;-87
2024/02/08 01:51:39;;;;;;;10.83;3.73;;;1.20;99.90;;;;;;5018965;28;20201;-86
2024/02/08 01:54:08;;;;;;;11.63;4.07;;;1.20;99.90;;;;;;5026095;28;20337;-87
2024/02/08 01:56:41;;;;;;;10.77;3.40;;;1.10;99.90;;;;;;5018525;28;20202;-87
2024/02/08 01:59:13;;;;;;;10.93;3.70;;;1.10;99.90;;;;;;5025782;28;20533;-87
2024/02/08 02:01:46;;;;;;;10.07;4.20;;;1.00;99.90;;;;;;5034409;28;20217;-87
2024/02/08 02:04:15;;;;;;;9.30;3.90;;;1.00;99.90;;;;;;5018195;28;20217;-87
2024/02/08 02:06:41;;;;;;;11.17;3.97;;;1.20;99.90;;;;;;5026360;28;20218;-87
2024/02/08 02:09:25;;;;;;;12.83;4.07;;;1.20;99.90;;;;;;5030580;28;20220;-87
2024/02/08 02:12:10;;;;;;;10.63;4.20;;;1.20;99.90;;;;;;5037618;28;20472;-88
2024/02/08 02:14:38;;;;;;;12.40;4.20;;;1.30;99.90;;;;;;5029700;28;20722;-87
2024/02/08 02:17:26;;;;;;;11.07;4.20;;;1.40;99.90;;;;;;5039571;28;20615;-87
2024/02/08 02:19:58;;;;;;;10.70;3.87;;;1.20;99.90;;;;;;5027317;28;20257;-87
2024/02/08 02:22:24;;;;;;;11.40;4.10;;;1.20;99.90;;;;;;5025437;28;20515;-88
2024/02/08 02:24:50;;;;;;;12.40;4.67;;;1.10;99.90;;;;;;5026386;28;20228;-87
2024/02/08 02:27:16;;;;;;;9.03;3.83;;;1.10;99.90;;;;;;5025826;28;20214;-87
2024/02/08 02:29:44;;;;;;;11.57;4.27;;;1.00;99.90;;;;;;5025226;28;20201;-88
2024/02/08 02:32:21;;;;;;;11.90;4.03;;;1.00;99.90;;;;;;5017570;28;20194;-87
2024/02/08 02:34:51;;;;;;;10.97;3.43;;;1.00;99.90;;;;;;5025743;28;20640;-88
2024/02/08 02:37:22;;;;;;;11.23;4.13;;;0.90;99.90;;;;;;5025776;28;20598;-88
2024/02/08 02:39:49;;;;;;;11.10;4.03;;;1.00;99.90;;;;;;5017319;28;20586;-88
2024/02/08 02:42:15;;;;;;;9.10;4.00;;;1.10;99.90;;;;;;5017700;28;20198;-87
2024/02/08 02:44:40;;;;;;;9.37;4.13;;;1.20;99.90;;;;;;5024355;28;20265;-88
2024/02/08 02:47:06;;;;;;;10.57;3.77;;;1.20;99.90;;;;;;5025350;28;20198;-87
2024/02/08 02:49:36;;;;;;;10.83;3.67;;;1.10;99.90;;;;;;5025020;28;20647;-87
2024/02/08 02:52:07;;;;;;;8.77;4.67;;;1.10;99.90;;;;;;5017315;28;20209;-87
2024/02/08 02:54:36;;;;;;;9.70;3.70;;;1.10;99.90;;;;;;5025275;28;20220;-88
2024/02/08 02:57:03;;;;;;;7.23;3.63;;;1.10;99.90;;;;;;5021105;28;20536;-87
2024/02/08 02:59:30;;;;;;;11.80;4.53;;;1.10;99.90;;;;;;5021927;28;20205;-87
2024/02/08 03:01:55;;;;;;;12.13;4.13;;;1.20;99.90;;;;;;5025290;28;20192;-88
2024/02/08 03:04:27;;;;;;;9.73;4.00;;;1.20;99.90;;;;;;5031648;28;20182;-88
2024/02/08 03:06:53;;;;;;;10.13;4.10;;;1.20;99.90;;;;;;5026111;28;20214;-87
2024/02/08 03:09:27;;;;;;;14.33;4.37;;;1.20;99.90;;;;;;5025322;28;20263;-87
2024/02/08 03:11:54;;;;;;;12.47;4.13;;;1.20;99.90;;;;;;5027386;28;20207;-87
2024/02/08 03:14:22;;;;;;;12.43;4.60;;;1.20;99.90;;;;;;5028960;28;20194;-88
2024/02/08 03:16:51;;;;;;;9.77;4.00;;;1.20;99.90;;;;;;5024626;28;20211;-88
2024/02/08 03:19:17;;;;;;;10.43;4.03;;;1.20;99.90;;;;;;5022559;28;20181;-88
2024/02/08 03:21:45;;;;;;;8.93;4.07;;;1.20;99.90;;;;;;5028458;28;20593;-88
2024/02/08 03:24:11;;;;;;;11.67;3.80;;;1.20;99.90;;;;;;5036607;28;20182;-88
2024/02/08 03:26:44;;;;;;;14.77;4.23;;;1.20;99.90;;;;;;5036382;28;20272;-88
2024/02/08 03:29:11;;;;;;;9.40;3.53;;;1.30;99.90;;;;;;5036461;28;20565;-88
2024/02/08 03:31:45;;;;;;;5.73;2.97;;;1.10;99.90;;;;;;5036222;28;20190;-88
2024/02/08 03:34:29;;;;;;;9.80;3.67;;;1.10;99.90;;;;;;5036494;28;20187;-88
2024/02/08 03:36:56;;;;;;;8.13;3.60;;;1.20;99.90;;;;;;5036439;28;20202;-88
2024/02/08 03:39:24;;;;;;;7.23;3.60;;;1.30;99.90;;;;;;5036148;28;20314;-87
2024/02/08 03:42:01;;;;;;;8.07;3.47;;;1.30;99.90;;;;;;5036354;28;20235;-88
2024/02/08 03:44:31;;;;;;;9.43;3.93;;;1.30;99.90;;;;;;5029504;28;20639;-88
2024/02/08 03:47:07;;;;;;;9.27;3.97;;;1.40;99.90;;;;;;5016661;28;20197;-87
2024/02/08 03:49:37;;;;;;;10.03;3.57;;;1.30;99.90;;;;;;5016499;28;20251;-88
2024/02/08 03:52:03;;;;;;;10.47;3.87;;;1.30;99.90;;;;;;5046226;28;20190;-87
2024/02/08 03:54:30;;;;;;;13.37;3.80;;;1.40;99.90;;;;;;5021130;28;20596;-88
2024/02/08 03:57:05;;;;;;;12.37;3.53;;;1.30;99.90;;;;;;5024797;28;20265;-87
2024/02/08 03:59:35;;;;;;;10.10;3.90;;;1.20;99.90;;;;;;5016646;28;20202;-87
2024/02/08 04:02:03;;;;;;;13.53;4.37;;;1.20;99.90;;;;;;5016152;28;20273;-87
2024/02/08 04:04:47;;;;;;;11.80;3.23;;;1.20;99.90;;;;;;5041469;28;20177;-87
2024/02/08 04:07:20;;;;;;;9.07;3.67;;;1.20;99.90;;;;;;5036103;28;20192;-87
2024/02/08 04:09:56;;;;;;;10.80;3.83;;;1.10;99.90;;;;;;5036033;28;20182;-88
2024/02/08 04:53:38;;;;;;;15.70;4.27;;;1.30;99.90;;;;;;5057751;28;20244;-88
2024/02/08 04:56:11;;;;;;;16.73;3.93;;;1.30;99.90;;;;;;5023726;28;20225;-88
2024/02/08 04:58:40;;;;;;;16.63;4.17;;;1.20;99.90;;;;;;5022852;28;20182;-87
2024/02/08 05:01:09;;;;;;;12.70;4.00;;;1.30;99.90;;;;;;5019631;28;20286;-87
2024/02/08 05:03:37;;;;;;;10.87;3.50;;;1.30;99.90;;;;;;5036873;28;20190;-88
2024/02/08 05:06:14;;;;;;;12.30;3.80;;;1.30;99.90;;;;;;5056806;28;20248;-88
2024/02/08 05:08:45;;;;;;;11.43;3.70;;;1.20;99.90;;;;;;5056582;28;20184;-88
2024/02/08 05:11:14;;;;;;;9.07;3.00;;;1.20;99.90;;;;;;5039028;28;20186;-89
2024/02/08 05:13:44;;;;;;;7.23;3.50;;;1.30;99.90;;;;;;5056314;28;20552;-88
2024/02/08 05:16:14;;;;;;;16.20;4.23;;;1.30;99.90;;;;;;5019163;28;20214;-89
2024/02/08 05:18:44;;;;;;;10.87;4.40;;;1.30;99.90;;;;;;5018891;28;20193;-89
2024/02/08 05:21:11;;;;;;;5.47;3.37;;;1.30;99.90;;;;;;5023825;28;20640;-88
2024/02/08 05:23:40;;;;;;;9.53;4.10;;;1.30;99.90;;;;;;5035364;28;20182;-87
2024/02/08 05:26:10;;;;;;;15.60;4.50;;;1.40;99.90;;;;;;5038840;28;20186;-89
2024/02/08 05:28:43;;;;;;;9.03;3.70;;;1.30;99.90;;;;;;5038708;28;20272;-88
2024/02/08 05:31:09;;;;;;;10.57;3.70;;;1.30;99.90;;;;;;5019290;28;20195;-87
2024/02/08 05:33:35;;;;;;;11.83;3.67;;;1.20;99.90;;;;;;5036259;28;20261;-87
2024/02/08 05:36:06;;;;;;;11.30;3.63;;;1.20;99.90;;;;;;5038534;28;20300;-89
2024/02/08 05:38:37;;;;;;;10.33;4.47;;;1.10;99.90;;;;;;5038550;28;20664;-88
2024/02/08 05:41:08;;;;;;;12.13;3.70;;;1.20;99.90;;;;;;5018383;28;20186;-88
2024/02/08 05:43:47;;;;;;;12.83;4.23;;;1.20;99.90;;;;;;5033389;28;20182;-88
2024/02/08 05:46:19;;;;;;;10.53;3.87;;;1.30;99.90;;;;;;5036386;28;20331;-88
2024/02/08 05:48:51;;;;;;;9.17;3.57;;;1.30;99.90;;;;;;5026345;28;20280;-88
2024/02/08 05:51:20;;;;;;;10.70;3.57;;;1.40;99.90;;;;;;5018589;28;20190;-88
2024/02/08 05:53:47;;;;;;;9.33;3.87;;;1.40;99.90;;;;;;5018557;28;20214;-88
2024/02/08 05:56:15;;;;;;;10.97;3.73;;;1.40;99.90;;;;;;5035667;28;20202;-87
2024/02/08 05:58:44;;;;;;;13.23;3.60;;;1.40;99.90;;;;;;5017780;28;20190;-88
2024/02/08 06:01:16;;;;;;;15.07;3.90;;;1.40;99.90;;;;;;5026269;28;20186;-88
2024/02/08 06:03:46;;;;;;;15.87;4.00;;;1.40;99.90;;;;;;5034696;28;20687;-89
2024/02/08 06:06:34;;;;;;;10.40;4.17;;;1.40;99.90;;;;;;5017636;28;20655;-85
2024/02/08 06:09:09;;;;;;;14.40;4.30;;;1.40;99.90;;;;;;5026181;28;20190;-88
2024/02/08 06:11:38;;;;;;;10.53;3.97;;;1.40;99.90;;;;;;5018281;28;20621;-88
2024/02/08 06:14:17;;;;;;;12.53;3.97;;;1.40;99.90;;;;;;5026195;28;20505;-88
2024/02/08 06:16:46;;;;;;;11.57;3.00;;;1.40;99.90;;;;;;5035470;28;20199;-86
2024/02/08 06:19:17;;;;;;;12.57;4.07;;;1.40;99.90;;;;;;5035155;28;20178;-88
2024/02/08 06:21:57;;;;;;;8.93;4.20;;;1.40;99.90;;;;;;5043541;28;20265;-87
2024/02/08 06:27:01;;;;;;;14.07;4.13;;;1.40;99.90;;;;;;5039152;28;20648;-87
2024/02/08 06:29:38;;;;;;;10.73;4.13;;;1.40;99.90;;;;;;5040082;28;20613;-87
2024/02/08 06:32:23;;;;;;;11.13;3.70;;;1.40;99.90;;;;;;5021231;28;20190;-87
2024/02/08 06:35:06;;;;;;;14.07;3.83;;;1.40;99.90;;;;;;5035546;28;20239;-87
2024/02/08 06:37:42;;;;;;;12.83;4.40;;;1.40;99.90;;;;;;5036896;28;20257;-87
2024/02/08 06:40:17;;;;;;;12.20;4.43;;;1.40;99.90;;;;;;5017362;28;20256;-87
2024/02/08 07:37:25;;;;;;;11.80;3.90;;;1.50;99.90;;;;;;5045402;28;20188;-85
2024/02/08 07:40:00;;;;;;;12.60;3.90;;;1.60;99.90;;;;;;5029619;28;20233;-85
2024/02/08 07:42:32;;;;;;;7.67;3.70;;;1.60;99.90;;;;;;5027781;28;20272;-85
2024/02/08 07:45:04;;;;;;;15.10;3.60;;;1.60;99.90;;;;;;5031807;28;20209;-85
2024/02/08 07:47:34;;;;;;;7.97;3.83;;;1.70;99.90;;;;;;5031938;28;20185;-85
2024/02/08 07:50:08;;;;;;;8.40;3.93;;;1.60;99.90;;;;;;5030783;28;20194;-85
2024/02/08 07:52:47;;;;;;;15.47;4.00;;;1.70;99.90;;;;;;5047877;28;20177;-83
2024/02/08 07:55:58;;;;;;;6.97;3.33;;;1.70;99.90;;;;;;5026163;28;20350;-85
2024/02/08 07:58:07;;;;;;;15.13;4.47;;;1.70;99.90;;;;;;5030816;28;20198;-85
2024/02/08 08:03:09;;;;;;;10.53;4.70;;;1.70;99.90;;;;;;5044651;28;20189;-85
2024/02/08 08:05:41;;;;;;;11.13;5.07;;;1.70;99.90;;;;;;5029291;28;20231;-85
2024/02/08 08:08:32;;;;;;;11.60;4.40;;;1.70;99.90;;;;;;5029332;28;20715;-85
2024/02/08 08:11:02;;;;;;;8.60;4.00;;;1.80;99.90;;;;;;5043729;28;20178;-86
2024/02/08 08:14:06;;;;;;;11.27;3.97;;;1.80;99.90;;;;;;5047504;28;20190;-84
2024/02/08 08:19:09;;;;;;;12.90;3.70;;;1.90;99.90;;;;;;5049957;28;20848;-84
2024/02/08 08:21:58;;;;;;;11.43;4.50;;;1.90;99.90;;;;;;5050430;28;20177;-84
2024/02/08 08:24:42;;;;;;;12.37;4.10;;;1.90;99.90;;;;;;5051508;28;20241;-85
2024/02/08 08:27:25;;;;;;;12.47;4.40;;;1.90;99.90;;;;;;5045535;28;20195;-84
2024/02/08 08:29:52;;;;;;;9.20;3.60;;;2.00;99.90;;;;;;5046365;28;20227;-84
2024/02/08 08:37:48;;;;;;;9.90;4.07;;;2.20;99.90;;;;;;5047232;28;20642;-85
2024/02/08 08:40:23;;;;;;;9.00;4.30;;;2.20;99.90;;;;;;5036591;28;20194;-84
2024/02/08 08:42:50;;;;;;;15.30;3.60;;;2.20;99.90;;;;;;5034858;28;20193;-84
2024/02/08 08:45:18;;;;;;;13.00;4.17;;;2.30;99.90;;;;;;5052110;28;20189;-84
2024/02/08 08:48:00;;;;;;;12.80;4.27;;;2.30;99.90;;;;;;5031200;28;20293;-84
2024/02/08 08:50:30;;;;;;;12.90;4.63;;;2.40;99.90;;;;;;5034573;28;20281;-83
2024/02/08 08:53:07;;;;;;;12.60;4.30;;;2.40;99.90;;;;;;5035519;28;20198;-83
2024/02/08 08:55:39;;;;;;;13.27;4.57;;;2.40;99.90;;;;;;5046319;28;20210;-84
2024/02/08 08:58:12;;;;;;;15.80;4.90;;;2.50;99.90;;;;;;5032734;28;20196;-83
2024/02/08 09:00:40;;;;;;;14.53;5.80;;;2.50;99.90;;;;;;5036954;28;20193;-84
2024/02/08 09:03:10;;;;;;;14.97;5.33;;;2.50;99.90;;;;;;5036963;28;20594;-84
2024/02/08 09:05:36;;;;;;;11.97;5.07;;;2.60;99.90;;;;;;5048916;28;20178;-84
2024/02/08 09:08:09;;;;;;;11.57;4.60;;;2.60;99.90;;;;;;5032122;28;20533;-84
2024/02/08 09:10:40;;;;;;;15.50;4.90;;;2.60;99.90;;;;;;5035876;28;20259;-84
2024/02/08 09:13:15;;;;;;;15.00;4.40;;;2.60;99.90;;;;;;5050646;28;20184;-85
2024/02/08 09:15:48;;;;;;;14.23;4.67;;;2.70;99.90;;;;;;5049024;28;20271;-83
2024/02/08 09:18:16;;;;;;;13.47;4.50;;;2.80;99.90;;;;;;5030949;28;20188;-85
2024/02/08 09:20:43;;;;;;;10.53;4.33;;;2.90;99.90;;;;;;5050354;28;20216;-84
2024/02/08 09:23:17;;;;;;;16.60;5.03;;;2.90;99.90;;;;;;5036023;28;20313;-85
2024/02/08 09:25:46;;;;;;;14.50;5.20;;;3.00;99.90;;;;;;5032406;28;20186;-84
2024/02/08 09:28:35;;;;;;;12.57;4.77;;;3.00;99.90;;;;;;5032348;28;20189;-85
2024/02/08 09:31:12;;;;;;;15.80;5.30;;;3.00;99.90;;;;;;5034390;28;20196;-88
2024/02/08 09:33:44;;;;;;;12.37;5.33;;;3.10;99.90;;;;;;5035417;28;20189;-87
2024/02/08 09:36:14;;;;;;;18.13;5.23;;;3.20;99.90;;;;;;5048696;28;20540;-86
2024/02/08 09:38:44;;;;;;;15.37;5.43;;;3.20;99.90;;;;;;5032793;28;20226;-87
2024/02/08 09:41:15;;;;;;;15.47;4.90;;;3.20;99.90;;;;;;5033238;28;20654;-84
2024/02/08 09:43:45;;;;;;;16.10;6.13;;;3.30;99.90;;;;;;5051834;28;20189;-85
2024/02/08 09:46:49;;;;;;;15.03;5.73;;;3.30;99.90;;;;;;5034009;28;20182;-86
2024/02/08 09:49:13;;;;;;;11.33;4.90;;;3.40;99.90;;;;;;5049117;28;20189;-85
2024/02/08 09:52:16;;;;;;;15.70;5.50;;;3.40;99.90;;;;;;5050551;28;20162;-86
2024/02/08 09:54:32;;;;;;;15.73;4.83;;;3.50;99.90;;;;;;5049681;28;20194;-86
2024/02/08 09:57:02;;;;;;;13.27;5.00;;;3.50;99.90;;;;;;5049063;28;20321;-85
2024/02/08 09:59:59;;;;;;;15.73;4.63;;;3.50;99.90;;;;;;5030363;28;20213;-85
2024/02/08 10:02:32;;;;;;;12.70;5.33;;;3.60;99.90;;;;;;5027774;28;20221;-87
2024/02/08 10:05:18;;;;;;;12.70;5.17;;;3.60;99.90;;;;;;5030176;28;20202;-87
2024/02/08 10:10:43;;;;;;;16.13;4.60;;;3.70;99.90;;;;;;5052807;28;20189;-87
2024/02/08 10:13:51;;;;;;;17.93;4.33;;;3.80;99.90;;;;;;5035129;28;20185;-86
2024/02/08 10:16:20;;;;;;;13.43;4.50;;;3.90;99.90;;;;;;5030290;28;20206;-86
2024/02/08 10:18:57;;;;;;;22.30;4.67;;;4.00;99.90;;;;;;5030053;28;20616;-86
2024/02/08 10:21:22;;;;;;;16.87;4.60;;;4.00;99.90;;;;;;5029822;28;20185;-85
2024/02/08 10:23:59;;;;;;;21.53;4.50;;;4.00;99.90;;;;;;5034680;28;20209;-86
2024/02/08 10:26:27;;;;;;;12.97;3.73;;;4.00;99.90;;;;;;5034701;28;20239;-87
2024/02/08 10:28:55;;;;;;;18.93;4.70;;;4.10;99.90;;;;;;5034502;28;20251;-88
2024/02/08 10:31:24;;;;;;;14.07;4.53;;;4.20;99.90;;;;;;5048799;28;20182;-87
2024/02/08 10:34:09;;;;;;;14.93;4.83;;;4.10;99.90;;;;;;5046586;28;20186;-87
2024/02/08 10:36:39;;;;;;;17.87;4.93;;;4.20;99.90;;;;;;5032111;28;20228;-87
2024/02/08 10:39:13;;;;;;;18.47;5.33;;;4.20;99.90;;;;;;5049832;28;20380;-87
2024/02/08 10:41:57;;;;;;;20.13;5.27;;;4.20;99.90;;;;;;5051596;28;20192;-87
2024/02/08 10:44:32;;;;;;;15.70;4.90;;;4.20;99.90;;;;;;5029804;28;20182;-87
2024/02/08 10:47:09;;;;;;;16.33;5.63;;;4.20;99.90;;;;;;5050740;28;20284;-87
2024/02/08 10:49:44;;;;;;;16.73;6.10;;;4.20;99.90;;;;;;5032558;28;20194;-88
2024/02/08 10:52:19;;;;;;;15.43;5.10;;;4.20;99.90;;;;;;5048126;28;20184;-88
2024/02/08 10:54:52;;;;;;;13.83;5.20;;;4.30;99.90;;;;;;5031680;28;20196;-87
2024/02/08 11:00:49;;;;;;;16.07;5.73;;;4.40;99.90;;;;;;5050566;28;20239;-88
2024/02/08 11:02:49;;;;;;;21.23;6.83;;;4.40;99.90;;;;;;5043786;28;20189;-88
2024/02/08 11:05:47;;;;;;;15.47;5.53;;;4.50;99.90;;;;;;5033938;28;20186;-88
2024/02/08 11:08:13;;;;;;;18.63;6.13;;;4.50;99.90;;;;;;5050898;28;20190;-87
2024/02/08 11:10:42;;;;;;;13.00;5.70;;;4.60;99.90;;;;;;5031580;28;20198;-88
2024/02/08 11:13:15;;;;;;;19.17;6.20;;;4.70;99.90;;;;;;5034451;28;20200;-88
2024/02/08 11:15:49;;;;;;;15.70;5.70;;;4.70;99.90;;;;;;5041663;28;20214;-88
2024/02/08 11:18:33;;;;;;;22.90;4.57;;;4.80;99.90;;;;;;5031970;28;20185;-89
2024/02/08 11:21:12;;;;;;;12.70;4.30;;;4.80;99.90;;;;;;5022786;28;20312;-88
2024/02/08 11:23:45;;;;;;;14.83;4.57;;;4.80;99.90;;;;;;5034056;28;20612;-88
2024/02/08 11:26:11;;;;;;;14.03;4.67;;;4.90;99.90;;;;;;5027581;28;20194;-88
2024/02/08 11:28:53;;;;;;;12.10;3.80;;;4.90;99.90;;;;;;5031612;28;20251;-89
2024/02/08 11:31:32;;;;;;;24.17;3.90;;;5.00;99.90;;;;;;5031195;28;20223;-88
2024/02/08 11:34:13;;;;;;;12.33;3.40;;;5.00;99.90;;;;;;5030986;28;20279;-88
2024/02/08 11:36:42;;;;;;;16.13;3.50;;;5.10;99.90;;;;;;5029502;28;20224;-88
2024/02/08 11:39:34;;;;;;;16.53;4.40;;;5.20;99.90;;;;;;5027734;28;20234;-89
2024/02/08 11:42:00;;;;;;;16.10;3.73;;;5.20;99.90;;;;;;5029284;28;20583;-88
2024/02/08 11:44:28;;;;;;;16.87;4.20;;;5.20;99.90;;;;;;5031115;28;20190;-89
2024/02/08 11:46:59;;;;;;;16.47;4.57;;;5.20;99.90;;;;;;5029949;28;20190;-89
2024/02/08 11:49:35;;;;;;;14.30;3.90;;;5.20;99.90;;;;;;5029741;28;20193;-88
2024/02/08 11:52:06;;;;;;;11.70;3.87;;;5.20;99.90;;;;;;5026138;28;20189;-89
2024/02/08 11:57:36;;;;;;;17.33;4.63;;;5.20;99.90;;;;;;5048397;28;20197;-87
2024/02/08 12:00:15;;;;;;;13.63;3.33;;;5.30;99.90;;;;;;5034967;28;20299;-89
2024/02/08 12:02:57;;;;;;;12.67;3.27;;;5.30;99.90;;;;;;5054760;28;20174;-89
2024/02/08 12:05:27;;;;;;;10.20;2.50;;;5.30;99.90;;;;;;5030421;28;20624;-89
2024/02/08 12:07:57;;;;;;;16.10;2.70;;;5.40;99.90;;;;;;5035250;28;20182;-89
2024/02/08 12:10:23;;;;;;;11.70;2.73;;;5.50;99.90;;;;;;5048763;28;20178;-89
2024/02/08 12:12:55;;;;;;;12.43;3.00;;;5.50;99.90;;;;;;5035804;28;20700;-90
2024/02/08 12:15:21;;;;;;;14.03;2.50;;;5.60;99.90;;;;;;5052024;28;20542;-89
2024/02/08 12:17:52;;;;;;;13.00;2.83;;;5.50;99.90;;;;;;5052089;28;20182;-89
2024/02/08 12:20:19;;;;;;;12.63;3.13;;;5.50;99.90;;;;;;5035983;28;20582;-89
2024/02/08 12:22:55;;;;;;;10.80;2.13;;;5.50;99.90;;;;;;5030356;28;20193;-90
2024/02/08 12:25:21;;;;;;;9.87;2.73;;;5.50;99.90;;;;;;5031881;28;20194;-89
2024/02/08 12:27:51;;;;;;;12.10;2.70;;;5.50;99.90;;;;;;5033914;28;20281;-89
2024/02/08 12:30:22;;;;;;;10.73;2.50;;;5.50;99.90;;;;;;5034364;28;20205;-90
2024/02/08 12:32:52;;;;;;;11.23;2.50;;;5.50;99.90;;;;;;5037590;28;20686;-89
2024/02/08 12:35:26;;;;;;;7.40;2.33;;;5.40;99.90;;;;;;5054735;28;20715;-90
2024/02/08 12:37:58;;;;;;;13.13;2.43;;;5.40;99.90;;;;;;5036758;28;20240;-89
2024/02/08 12:40:29;;;;;;;14.63;3.20;;;5.40;99.90;;;;;;5034311;28;20216;-90
2024/02/08 12:42:57;;;;;;;15.10;2.40;;;5.40;99.90;;;;;;5036321;28;20240;-90
2024/02/08 12:45:23;;;;;;;13.77;3.33;;;5.40;99.90;;;;;;5036568;28;20193;-89
2024/02/08 12:47:51;;;;;;;10.57;2.57;;;5.40;99.90;;;;;;5031299;28;20274;-90
2024/02/08 12:50:18;;;;;;;17.53;3.13;;;5.30;99.90;;;;;;5035017;28;20190;-89
2024/02/08 12:52:47;;;;;;;10.00;2.17;;;5.30;99.90;;;;;;5031207;28;20185;-90
2024/02/08 12:55:19;;;;;;;12.33;2.70;;;5.30;99.90;;;;;;5033465;28;20214;-90
2024/02/08 12:57:57;;;;;;;12.10;2.80;;;5.30;99.90;;;;;;5033736;28;20244;-89
2024/02/08 13:00:24;;;;;;;10.50;2.17;;;5.30;99.90;;;;;;5033377;28;20239;-89
2024/02/08 13:02:54;;;;;;;10.97;2.67;;;5.40;99.90;;;;;;5034306;28;20181;-90
2024/02/08 13:05:29;;;;;;;14.07;3.00;;;5.40;99.90;;;;;;5048424;28;20276;-89
2024/02/08 13:07:59;;;;;;;11.63;2.97;;;5.30;99.90;;;;;;5029360;28;20193;-89
2024/02/08 13:10:27;;;;;;;9.23;2.30;;;5.30;99.90;;;;;;5033540;28;20189;-89
2024/02/08 13:13:12;;;;;;;11.57;2.73;;;5.30;99.90;;;;;;5033368;28;20395;-88
2024/02/08 13:15:38;;;;;;;11.73;2.90;;;5.30;99.90;;;;;;5049793;28;20583;-89
2024/02/08 13:18:10;;;;;;;9.47;2.37;;;5.30;99.90;;;;;;5051081;28;20181;-88
2024/02/08 13:20:36;;;;;;;9.87;2.40;;;5.20;99.90;;;;;;5036194;28;20189;-89
2024/02/08 13:23:04;;;;;;;11.33;2.87;;;5.20;99.90;;;;;;5032114;28;20535;-89
2024/02/08 13:25:30;;;;;;;11.43;3.13;;;5.20;99.90;;;;;;5037514;28;20562;-88
2024/02/08 13:27:59;;;;;;;12.00;2.53;;;5.20;99.90;;;;;;5037894;28;20284;-89
2024/02/08 13:30:29;;;;;;;13.40;3.20;;;5.20;99.90;;;;;;5035198;28;20186;-88
2024/02/08 13:32:57;;;;;;;11.23;2.83;;;5.10;99.90;;;;;;5035363;28;20212;-88
2024/02/08 13:35:26;;;;;;;10.27;2.70;;;5.10;99.90;;;;;;5033805;28;20213;-88
2024/02/08 13:37:57;;;;;;;9.67;2.50;;;5.10;99.90;;;;;;5035240;28;20213;-88
2024/02/08 13:40:30;;;;;;;10.70;2.50;;;5.10;99.90;;;;;;5028307;28;20568;-86
2024/02/08 13:42:56;;;;;;;13.43;2.97;;;5.10;99.90;;;;;;5048079;28;20633;-87
2024/02/08 13:45:28;;;;;;;12.03;2.43;;;5.10;99.90;;;;;;5036880;28;20208;-90
2024/02/08 13:47:56;;;;;;;11.83;2.40;;;5.00;99.90;;;;;;5035068;28;20183;-89
2024/02/08 13:50:23;;;;;;;11.60;2.90;;;5.00;99.90;;;;;;5037417;28;20625;-91
2024/02/08 13:52:52;;;;;;;7.40;2.33;;;4.90;99.90;;;;;;5034520;28;20197;-89
2024/02/08 13:55:19;;;;;;;13.03;2.57;;;4.90;99.90;;;;;;5036258;28;20240;-89
2024/02/08 13:57:52;;;;;;;11.17;2.70;;;4.90;99.90;;;;;;5031401;28;20238;-88
2024/02/08 14:00:21;;;;;;;11.07;2.30;;;4.90;99.90;;;;;;5033598;28;20190;-89
2024/02/08 14:02:53;;;;;;;8.67;2.70;;;4.90;99.90;;;;;;5035495;28;20701;-90
2024/02/08 14:05:23;;;;;;;15.23;3.00;;;4.90;99.90;;;;;;5045191;28;20179;-90
2024/02/08 14:07:57;;;;;;;11.37;2.43;;;4.90;99.90;;;;;;5034914;28;20678;-90
2024/02/08 14:10:31;;;;;;;7.70;2.63;;;4.80;99.90;;;;;;5042843;28;20182;-89
2024/02/08 14:13:09;;;;;;;8.40;2.40;;;4.80;99.90;;;;;;5038664;28;20189;-90
2024/02/08 14:15:45;;;;;;;12.57;2.37;;;4.80;99.90;;;;;;5037892;28;20206;-90
2024/02/08 14:18:22;;;;;;;10.80;2.97;;;4.80;99.90;;;;;;5048137;28;20169;-91
2024/02/08 14:20:56;;;;;;;11.23;2.47;;;4.80;99.90;;;;;;5037644;28;20185;-90
2024/02/08 14:23:38;;;;;;;11.27;2.50;;;4.80;99.90;;;;;;5031924;28;20197;-90
2024/02/08 14:28:32;;;;;;;14.37;3.10;;;4.70;99.90;;;;;;5044294;28;20494;-91
2024/02/08 14:31:01;;;;;;;12.73;2.93;;;4.80;99.90;;;;;;5029022;28;20240;-91
2024/02/08 14:33:28;;;;;;;8.00;2.10;;;4.80;99.90;;;;;;5037468;28;20218;-90
2024/02/08 14:35:54;;;;;;;7.40;2.43;;;4.70;99.90;;;;;;5037734;28;20597;-90
2024/02/08 14:38:23;;;;;;;11.97;2.93;;;4.70;99.90;;;;;;5049756;28;20241;-89
2024/02/08 14:40:53;;;;;;;12.83;2.30;;;4.70;99.90;;;;;;5036170;28;20628;-90
2024/02/08 14:43:25;;;;;;;13.67;2.63;;;4.70;99.90;;;;;;5050076;28;20182;-90
2024/02/08 14:45:54;;;;;;;10.93;2.50;;;4.70;99.90;;;;;;5045932;28;20273;-91
2024/02/08 14:48:37;;;;;;;10.53;3.17;;;4.60;99.90;;;;;;5031156;28;20621;-91
2024/02/08 14:53:58;;;;;;;11.57;2.90;;;4.60;99.90;;;;;;5053828;28;20186;-90
2024/02/08 14:56:24;;;;;;;7.37;2.40;;;4.60;99.90;;;;;;5025623;28;20210;-91
2024/02/08 14:58:56;;;;;;;14.60;2.77;;;4.70;99.90;;;;;;5043190;28;20178;-91
2024/02/08 15:01:39;;;;;;;5.67;2.33;;;4.60;99.90;;;;;;5034811;28;20687;-91
2024/02/08 15:04:16;;;;;;;9.10;2.73;;;4.60;99.90;;;;;;5029104;28;20190;-90
2024/02/08 15:14:55;;;;;;;4.57;1.30;;;4.60;99.90;;;;;;5044835;28;20190;-91
2024/02/08 15:17:23;;;;;;;6.97;1.13;;;4.40;99.90;;;;;;5022410;28;20233;-90
2024/02/08 15:19:52;;;;;;;3.67;1.10;;;4.30;99.90;;;;;;5036555;28;20624;-91
2024/02/08 15:25:03;;;;;;;7.60;1.53;;;4.10;99.90;;;;;;5055066;28;20178;-89
2024/02/08 15:27:34;;;;;;;5.73;1.00;;;4.00;99.90;;;;;;5036793;28;20196;-89
2024/02/08 15:30:11;;;;;;;3.33;1.10;;;3.90;99.90;;;;;;5036252;28;20190;-90